Time;durP1;ratioP1;P1;durP2;ratioP2;P2;SDS_P1;SDS_P2;PMS_P1;PMS_P2;Temp;Humidity;BMP_temperature;BMP_pressure;BME280_temperature;BME280_humidity;BME280_pressure;Samples;Min_cycle;Max_cycle;Signal;HPM_P1;HPM_P2
2023/05/31 00:01:59;;;;;;;2.47;1.70;;;;;;;13.24;58.71;98419.47;5071108;28;20584;-85
2023/05/31 00:04:26;;;;;;;3.00;1.80;;;;;;;13.22;57.96;98421.41;5071327;28;20227;-85
2023/05/31 00:06:52;;;;;;;2.67;1.43;;;;;;;13.16;58.64;98417.41;5071089;28;20298;-84
2023/05/31 00:09:19;;;;;;;2.20;1.73;;;;;;;13.08;59.78;98432.22;5070488;28;20588;-85
2023/05/31 00:11:47;;;;;;;3.47;1.87;;;;;;;12.97;60.64;98432.16;5071177;28;20314;-84
2023/05/31 00:14:13;;;;;;;3.00;1.53;;;;;;;13.01;59.80;98428.31;5071247;28;20211;-85
2023/05/31 00:16:39;;;;;;;2.47;1.70;;;;;;;13.01;59.36;98423.03;5070934;28;20238;-84
2023/05/31 00:19:06;;;;;;;1.80;1.70;;;;;;;12.99;59.13;98417.81;5071111;28;20226;-84
2023/05/31 00:21:32;;;;;;;1.97;1.53;;;;;;;13.04;57.71;98398.91;5070586;28;20680;-85
2023/05/31 00:23:59;;;;;;;2.43;1.70;;;;;;;13.21;55.74;98390.50;5072142;28;20235;-84
2023/05/31 00:26:25;;;;;;;2.37;1.50;;;;;;;13.22;55.57;98384.25;5075052;28;20314;-85
2023/05/31 00:28:53;;;;;;;4.53;1.60;;;;;;;13.25;56.49;98399.91;5074881;28;20229;-85
2023/05/31 00:31:20;;;;;;;3.53;1.70;;;;;;;13.28;55.42;98389.09;5074059;28;20582;-85
2023/05/31 00:33:46;;;;;;;5.50;1.50;;;;;;;13.32;55.64;98390.56;5075154;28;20207;-85
2023/05/31 00:36:13;;;;;;;2.47;1.60;;;;;;;13.34;55.49;98385.97;5074775;28;20231;-85
2023/05/31 00:38:39;;;;;;;2.00;1.60;;;;;;;13.41;54.08;98377.41;5075062;28;20207;-85
2023/05/31 00:41:09;;;;;;;2.87;1.73;;;;;;;13.36;55.13;98389.34;5074166;28;20303;-85
2023/05/31 00:43:35;;;;;;;3.07;1.60;;;;;;;13.34;54.81;98384.16;5074506;28;20258;-85
2023/05/31 00:46:03;;;;;;;2.87;1.40;;;;;;;13.29;55.75;98393.44;5075077;28;20235;-85
2023/05/31 00:48:30;;;;;;;2.63;1.80;;;;;;;13.23;56.36;98389.44;5074756;28;20577;-85
2023/05/31 00:50:57;;;;;;;2.40;1.57;;;;;;;13.16;56.58;98396.19;5074010;28;20294;-85
2023/05/31 00:53:26;;;;;;;3.17;1.63;;;;;;;13.14;56.23;98391.94;5076515;28;20222;-85
2023/05/31 00:55:53;;;;;;;2.07;1.50;;;;;;;13.13;56.74;98390.22;5075841;28;20234;-85
2023/05/31 00:58:20;;;;;;;3.87;1.77;;;;;;;13.00;58.00;98405.38;5074278;28;20232;-85
2023/05/31 01:00:47;;;;;;;3.27;1.60;;;;;;;12.92;58.30;98407.72;5070740;28;20207;-85
2023/05/31 01:03:16;;;;;;;1.93;1.50;;;;;;;12.82;58.68;98404.06;5074417;28;20232;-85
2023/05/31 01:05:44;;;;;;;2.27;1.50;;;;;;;12.72;59.26;98408.38;5074452;28;20231;-85
2023/05/31 01:08:10;;;;;;;4.07;1.80;;;;;;;12.70;59.09;98402.31;5074315;28;20587;-85
2023/05/31 01:10:37;;;;;;;2.80;1.60;;;;;;;12.67;58.39;98397.25;5073779;28;20207;-85
2023/05/31 01:13:13;;;;;;;4.23;1.90;;;;;;;12.78;56.87;98390.19;5074162;28;20211;-85
2023/05/31 01:15:45;;;;;;;2.40;1.80;;;;;;;12.72;58.32;98400.41;5074233;28;20243;-84
2023/05/31 01:18:19;;;;;;;3.53;1.80;;;;;;;12.62;59.17;98404.69;5073845;28;20212;-84
2023/05/31 01:20:47;;;;;;;3.70;1.80;;;;;;;12.57;59.78;98410.31;5073373;28;20210;-84
2023/05/31 01:23:34;;;;;;;3.83;1.57;;;;;;;12.54;60.05;98417.66;5073753;28;20666;-85
2023/05/31 01:26:22;;;;;;;2.97;1.73;;;;;;;12.39;60.74;98424.91;5074097;28;20576;-84
2023/05/31 01:28:53;;;;;;;3.63;1.90;;;;;;;12.29;62.53;98431.81;5074016;28;20257;-85
2023/05/31 01:31:22;;;;;;;3.80;1.73;;;;;;;12.23;62.18;98426.13;5072563;28;20265;-85
2023/05/31 01:33:50;;;;;;;3.50;1.80;;;;;;;12.18;61.69;98426.41;5073548;28;20215;-84
2023/05/31 01:36:16;;;;;;;2.53;1.57;;;;;;;12.10;63.32;98438.53;5073101;28;20269;-85
2023/05/31 01:38:43;;;;;;;3.00;1.70;;;;;;;12.01;64.12;98440.03;5073736;28;20213;-85
2023/05/31 01:41:12;;;;;;;3.03;1.50;;;;;;;11.95;64.80;98445.75;5072945;28;20215;-84
2023/05/31 01:43:42;;;;;;;2.77;1.60;;;;;;;11.87;65.33;98452.53;5073635;28;20301;-85
2023/05/31 01:46:10;;;;;;;2.87;1.60;;;;;;;11.88;65.54;98452.44;5073607;28;20628;-84
2023/05/31 01:48:38;;;;;;;3.47;1.67;;;;;;;11.89;65.17;98450.63;5073795;28;20210;-85
2023/05/31 01:51:09;;;;;;;2.33;1.60;;;;;;;11.90;65.27;98453.19;5072919;28;20510;-85
2023/05/31 01:53:35;;;;;;;1.70;1.50;;;;;;;11.93;64.41;98446.81;5073773;28;20202;-85
2023/05/31 01:56:02;;;;;;;1.70;1.60;;;;;;;11.98;63.63;98439.41;5073321;28;20720;-85
2023/05/31 01:58:31;;;;;;;2.30;1.40;;;;;;;12.03;62.89;98431.97;5073443;28;20218;-85
2023/05/31 02:00:59;;;;;;;2.03;1.70;;;;;;;12.04;63.34;98439.81;5072464;28;20586;-85
2023/05/31 02:03:26;;;;;;;2.23;1.60;;;;;;;12.05;63.13;98446.78;5072998;28;20227;-85
2023/05/31 02:05:57;;;;;;;2.03;1.67;;;;;;;12.08;63.41;98440.44;5073326;28;20237;-85
2023/05/31 02:08:24;;;;;;;2.63;1.70;;;;;;;12.16;63.13;98446.06;5073389;28;20222;-77
2023/05/31 02:10:50;;;;;;;2.97;1.80;;;;;;;12.19;62.85;98448.47;5072733;28;20261;-83
2023/05/31 02:13:17;;;;;;;3.47;1.90;;;;;;;12.20;62.11;98435.13;5072855;28;20210;-85
2023/05/31 02:15:44;;;;;;;3.13;1.73;;;;;;;12.20;62.18;98434.28;5073245;28;20235;-85
2023/05/31 02:18:12;;;;;;;2.87;1.77;;;;;;;12.21;61.76;98435.97;5073110;28;20219;-85
2023/05/31 02:20:39;;;;;;;3.03;1.63;;;;;;;12.25;61.33;98426.84;5072423;28;20256;-85
2023/05/31 02:23:05;;;;;;;3.10;1.40;;;;;;;12.34;59.58;98413.78;5072947;28;20211;-85
2023/05/31 02:25:32;;;;;;;3.93;2.27;;;;;;;12.37;60.26;98420.66;5072625;28;20324;-85
2023/05/31 02:27:59;;;;;;;2.20;1.47;;;;;;;12.38;59.74;98411.75;5072667;28;20223;-85
2023/05/31 02:30:27;;;;;;;1.73;1.60;;;;;;;12.34;60.00;98413.78;5072264;28;20211;-84
2023/05/31 02:32:54;;;;;;;3.10;1.83;;;;;;;12.31;60.21;98423.75;5072590;28;20206;-85
2023/05/31 02:35:22;;;;;;;3.13;1.70;;;;;;;12.26;61.05;98426.75;5072635;28;20254;-85
2023/05/31 02:37:48;;;;;;;3.70;1.40;;;;;;;12.19;61.78;98432.59;5072675;28;20203;-85
2023/05/31 02:40:15;;;;;;;2.93;1.50;;;;;;;12.20;61.00;98429.84;5071795;28;20207;-85
2023/05/31 02:42:43;;;;;;;4.30;1.43;;;;;;;12.24;59.71;98411.91;5072878;28;20207;-84
2023/05/31 02:45:11;;;;;;;2.93;2.17;;;;;;;12.31;58.97;98410.50;5072183;28;20701;-84
2023/05/31 02:47:38;;;;;;;3.10;1.37;;;;;;;12.40;58.26;98401.91;5072271;28;20207;-84
2023/05/31 02:50:07;;;;;;;3.17;1.70;;;;;;;12.51;57.53;98392.22;5071815;28;20207;-84
2023/05/31 02:52:35;;;;;;;1.73;1.63;;;;;;;12.61;56.79;98387.09;5072369;28;20265;-84
2023/05/31 02:55:02;;;;;;;2.43;1.67;;;;;;;12.61;57.17;98387.09;5071945;28;20223;-77
2023/05/31 02:57:28;;;;;;;4.33;1.70;;;;;;;12.76;56.11;98381.50;5072514;28;20239;-85
2023/05/31 02:59:56;;;;;;;2.93;1.90;;;;;;;12.92;54.92;98371.44;5071571;28;20215;-85
2023/05/31 03:02:24;;;;;;;3.47;1.80;;;;;;;12.94;55.37;98381.91;5072227;28;20215;-85
2023/05/31 03:04:50;;;;;;;3.23;1.90;;;;;;;12.89;55.91;98386.75;5071866;28;20242;-85
2023/05/31 03:07:17;;;;;;;3.23;1.80;;;;;;;12.91;55.18;98374.22;5072180;28;20204;-85
2023/05/31 03:09:45;;;;;;;2.00;1.43;;;;;;;12.74;57.06;98398.47;5071635;28;20208;-85
2023/05/31 03:12:12;;;;;;;4.17;1.90;;;;;;;12.66;56.89;98392.91;5072451;28;20294;-85
2023/05/31 03:14:38;;;;;;;4.07;2.10;;;;;;;12.54;57.18;98397.28;5072237;28;20223;-84
2023/05/31 03:17:06;;;;;;;3.90;1.93;;;;;;;12.48;58.30;98415.44;5072263;28;20239;-85
2023/05/31 03:19:33;;;;;;;3.10;1.73;;;;;;;12.42;58.75;98415.88;5071721;28;20207;-85
2023/05/31 03:21:59;;;;;;;4.60;1.80;;;;;;;12.38;58.50;98409.97;5072266;28;20257;-85
2023/05/31 03:24:26;;;;;;;2.73;1.70;;;;;;;12.36;58.22;98413.69;5072244;28;20242;-85
2023/05/31 03:26:54;;;;;;;3.30;1.80;;;;;;;12.32;58.02;98406.91;5072459;28;20278;-85
2023/05/31 03:29:21;;;;;;;2.63;1.87;;;;;;;12.21;59.46;98420.91;5071383;28;20229;-85
2023/05/31 03:31:47;;;;;;;3.97;1.90;;;;;;;12.26;58.77;98413.50;5071968;28;20211;-86
2023/05/31 03:34:14;;;;;;;2.90;1.60;;;;;;;12.27;58.45;98409.03;5071885;28;20575;-86
2023/05/31 03:36:41;;;;;;;4.17;1.73;;;;;;;12.17;59.24;98408.00;5071703;28;20207;-85
2023/05/31 03:39:07;;;;;;;2.57;1.90;;;;;;;12.09;59.89;98420.94;5071617;28;20210;-84
2023/05/31 03:41:34;;;;;;;3.83;1.97;;;;;;;11.97;61.17;98421.78;5072044;28;20211;-85
2023/05/31 03:44:02;;;;;;;3.33;1.90;;;;;;;11.88;61.00;98423.31;5071528;28;20280;-85
2023/05/31 03:46:28;;;;;;;3.57;1.80;;;;;;;11.80;62.29;98435.38;5071877;28;20207;-85
2023/05/31 03:48:55;;;;;;;3.63;2.00;;;;;;;11.74;63.04;98455.19;5072256;28;20689;-86
2023/05/31 03:51:21;;;;;;;2.20;1.70;;;;;;;11.71;63.28;98457.19;5071082;28;20211;-85
2023/05/31 03:53:48;;;;;;;3.17;2.00;;;;;;;11.76;62.49;98439.19;5071995;28;20226;-85
2023/05/31 03:56:14;;;;;;;2.30;1.57;;;;;;;11.72;63.08;98456.22;5071185;28;20234;-86
2023/05/31 03:58:42;;;;;;;4.70;1.90;;;;;;;11.68;64.09;98454.75;5071395;28;20206;-85
2023/05/31 04:01:10;;;;;;;3.20;1.63;;;;;;;11.64;64.44;98456.78;5070633;28;20222;-86
2023/05/31 04:03:37;;;;;;;3.00;1.80;;;;;;;11.64;64.67;98462.06;5071360;28;20713;-86
2023/05/31 04:06:04;;;;;;;2.67;1.80;;;;;;;11.65;64.65;98469.06;5071338;28;20756;-85
2023/05/31 04:08:31;;;;;;;4.00;1.60;;;;;;;11.75;63.17;98454.22;5071440;28;20223;-86
2023/05/31 04:10:57;;;;;;;2.43;1.60;;;;;;;11.82;63.36;98454.66;5070933;28;20207;-86
2023/05/31 04:13:24;;;;;;;3.40;1.67;;;;;;;11.77;65.69;98472.66;5071676;28;20218;-85
2023/05/31 04:15:51;;;;;;;4.00;1.63;;;;;;;11.84;65.04;98473.94;5071612;28;20256;-85
2023/05/31 04:18:19;;;;;;;3.83;2.10;;;;;;;11.92;64.18;98466.31;5071799;28;20213;-86
2023/05/31 04:20:45;;;;;;;4.40;2.30;;;;;;;11.96;64.66;98481.03;5071165;28;20215;-85
2023/05/31 04:23:12;;;;;;;3.73;1.80;;;;;;;11.98;65.19;98479.13;5072609;28;20208;-85
2023/05/31 04:25:38;;;;;;;2.30;1.80;;;;;;;11.94;66.04;98478.50;5071806;28;20720;-85
2023/05/31 04:28:06;;;;;;;3.00;1.90;;;;;;;11.93;66.97;98502.44;5072241;28;20222;-85
2023/05/31 04:30:34;;;;;;;2.83;1.77;;;;;;;11.97;68.12;98509.19;5071123;28;20213;-85
2023/05/31 04:33:01;;;;;;;2.63;1.70;;;;;;;11.98;69.40;98509.09;5071977;28;20254;-85
2023/05/31 04:35:28;;;;;;;2.80;1.80;;;;;;;12.04;70.17;98518.44;5071512;28;20235;-85
2023/05/31 04:37:58;;;;;;;3.83;2.37;;;;;;;12.10;70.97;98520.69;5071678;28;20222;-85
2023/05/31 04:40:25;;;;;;;2.93;2.03;;;;;;;12.14;71.13;98519.50;5070794;28;20215;-85
2023/05/31 04:42:52;;;;;;;2.50;1.60;;;;;;;12.26;70.03;98508.03;5074398;28;20222;-85
2023/05/31 04:45:18;;;;;;;2.97;1.83;;;;;;;12.30;70.74;98520.13;5075090;28;20599;-85
2023/05/31 04:47:46;;;;;;;4.40;1.70;;;;;;;12.39;71.63;98525.63;5071244;28;20206;-85
2023/05/31 04:50:13;;;;;;;2.80;1.73;;;;;;;12.54;71.68;98518.41;5070289;28;20203;-85
2023/05/31 04:52:41;;;;;;;2.33;1.60;;;;;;;12.79;69.19;98507.75;5070705;28;20670;-85
2023/05/31 04:55:08;;;;;;;3.37;2.00;;;;;;;12.93;66.42;98494.31;5070829;28;20644;-85
2023/05/31 04:57:36;;;;;;;2.73;2.00;;;;;;;13.16;63.95;98477.59;5070959;28;20243;-86
2023/05/31 05:00:08;;;;;;;3.57;1.80;;;;;;;13.35;62.56;98467.28;5070193;28;20207;-86
2023/05/31 05:02:34;;;;;;;4.47;1.80;;;;;;;13.59;61.44;98462.78;5070750;28;20211;-85
2023/05/31 05:05:01;;;;;;;3.07;1.97;;;;;;;13.78;61.41;98468.38;5070896;28;20242;-85
2023/05/31 05:07:27;;;;;;;4.63;2.10;;;;;;;14.16;60.71;98463.59;5070838;28;20212;-86
2023/05/31 05:09:55;;;;;;;3.30;1.80;;;;;;;14.81;59.47;98469.88;5070003;28;20207;-85
2023/05/31 05:12:22;;;;;;;2.63;1.77;;;;;;;15.55;56.51;98443.25;5074010;28;20218;-86
2023/05/31 05:14:48;;;;;;;2.80;1.80;;;;;;;16.19;54.07;98434.94;5074474;28;20593;-86
2023/05/31 05:17:15;;;;;;;4.40;1.63;;;;;;;16.83;51.46;98418.47;5074682;28;20208;-87
2023/05/31 05:19:41;;;;;;;3.07;1.83;;;;;;;17.35;49.80;98407.44;5073554;28;20215;-86
2023/05/31 05:22:08;;;;;;;4.63;2.03;;;;;;;17.57;48.84;98406.31;5074549;28;20207;-86
2023/05/31 05:24:34;;;;;;;4.87;2.37;;;;;;;17.97;48.04;98401.56;5074297;28;20258;-87
2023/05/31 05:27:02;;;;;;;4.03;2.03;;;;;;;18.21;45.87;98386.72;5074373;28;20208;-86
2023/05/31 05:29:29;;;;;;;4.13;1.90;;;;;;;18.35;46.43;98399.63;5073751;28;20222;-86
2023/05/31 05:31:56;;;;;;;3.53;1.97;;;;;;;18.63;46.43;98401.34;5074000;28;20211;-87
2023/05/31 05:34:22;;;;;;;3.43;2.03;;;;;;;18.69;44.96;98379.31;5073951;28;20230;-86
2023/05/31 05:36:49;;;;;;;4.67;2.00;;;;;;;18.72;45.61;98387.03;5074198;28;20215;-86
2023/05/31 05:39:15;;;;;;;3.53;2.17;;;;;;;18.96;44.77;98389.16;5073442;28;20207;-87
2023/05/31 05:41:42;;;;;;;3.37;1.63;;;;;;;19.21;45.43;98391.94;5074125;28;20218;-79
2023/05/31 05:44:09;;;;;;;2.30;1.83;;;;;;;19.39;44.26;98392.75;5074043;28;20211;-79
2023/05/31 05:46:36;;;;;;;3.63;1.90;;;;;;;19.48;44.51;98386.50;5074150;28;20222;-78
2023/05/31 05:49:03;;;;;;;6.70;1.90;;;;;;;19.43;43.49;98374.53;5073927;28;20285;-79
2023/05/31 05:51:29;;;;;;;5.93;2.10;;;;;;;19.61;45.04;98397.66;5073279;28;20211;-79
2023/05/31 05:53:55;;;;;;;3.77;2.03;;;;;;;19.76;43.98;98388.03;5073888;28;20215;-79
2023/05/31 05:56:22;;;;;;;3.17;1.60;;;;;;;19.97;44.49;98398.41;5074084;28;20223;-79
2023/05/31 05:58:49;;;;;;;4.37;2.30;;;;;;;20.29;43.40;98394.09;5073786;28;20593;-79
2023/05/31 06:01:18;;;;;;;3.63;2.00;;;;;;;20.20;43.14;98381.66;5072789;28;20302;-79
2023/05/31 06:03:46;;;;;;;4.88;2.00;;;;;;;20.36;42.60;98387.09;5073612;28;20434;-79
2023/05/31 06:06:13;;;;;;;3.53;1.70;;;;;;;20.67;42.26;98380.16;5073559;28;20234;-80
2023/05/31 06:08:39;;;;;;;3.80;2.20;;;;;;;20.52;42.28;98376.44;5073134;28;20241;-79
2023/05/31 06:11:06;;;;;;;3.25;2.13;;;;;;;20.90;41.93;98377.78;5071873;28;20461;-77
2023/05/31 06:13:32;;;;;;;4.30;1.90;;;;;;;21.09;41.57;98383.66;5073529;28;20204;-78
2023/05/31 06:15:59;;;;;;;4.03;1.80;;;;;;;21.29;41.76;98384.22;5073155;28;20223;-78
2023/05/31 06:18:27;;;;;;;2.80;1.90;;;;;;;21.30;41.04;98370.59;5073112;28;20230;-77
2023/05/31 06:20:55;;;;;;;4.73;2.03;;;;;;;21.35;41.64;98384.41;5072586;28;20218;-77
2023/05/31 06:23:21;;;;;;;3.00;2.03;;;;;;;21.30;41.91;98375.13;5072655;28;20219;-77
2023/05/31 06:25:48;;;;;;;3.60;1.67;;;;;;;21.45;41.10;98373.47;5072711;28;20231;-78
2023/05/31 06:28:14;;;;;;;4.27;2.40;;;;;;;21.39;40.62;98363.38;5072926;28;20211;-78
2023/05/31 06:30:41;;;;;;;3.73;2.13;;;;;;;21.40;41.65;98376.66;5071762;28;20207;-78
2023/05/31 06:33:08;;;;;;;6.03;1.90;;;;;;;21.58;40.49;98363.03;5072487;28;20740;-79
2023/05/31 06:35:36;;;;;;;2.90;1.87;;;;;;;21.63;41.49;98383.03;5072387;28;20237;-77
2023/05/31 06:38:03;;;;;;;3.40;1.93;;;;;;;21.60;42.31;98393.31;5072668;28;20210;-76
2023/05/31 06:40:30;;;;;;;3.87;2.00;;;;;;;21.88;42.06;98382.03;5072029;28;20227;-77
2023/05/31 06:42:57;;;;;;;7.90;2.13;;;;;;;21.85;41.00;98370.78;5072711;28;20211;-77
2023/05/31 06:45:24;;;;;;;1.70;1.60;;;;;;;22.18;41.12;98372.41;5072520;28;20230;-77
2023/05/31 06:47:51;;;;;;;4.05;2.20;;;;;;;22.33;40.50;98376.91;5071990;28;20430;-78
2023/05/31 06:50:18;;;;;;;2.53;1.90;;;;;;;22.08;41.10;98375.25;5071740;28;20207;-79
2023/05/31 06:52:45;;;;;;;4.37;1.97;;;;;;;21.99;39.75;98357.47;5072427;28;20207;-78
2023/05/31 06:55:12;;;;;;;3.20;2.10;;;;;;;21.89;41.42;98378.31;5069766;28;20227;-78
2023/05/31 06:57:44;;;;;;;6.63;2.10;;;;;;;21.76;41.16;98363.75;5067521;28;20238;-78
2023/05/31 07:00:12;;;;;;;5.17;2.03;;;;;;;21.53;42.55;98382.34;5070715;28;20681;-78
2023/05/31 07:02:38;;;;;;;3.93;2.10;;;;;;;21.16;43.00;98379.31;5072058;28;20229;-78
2023/05/31 07:05:05;;;;;;;7.30;2.53;;;;;;;20.65;44.66;98387.56;5071457;28;20242;-78
2023/05/31 07:07:32;;;;;;;4.05;2.30;;;;;;;20.24;44.67;98388.38;5070345;28;20800;-77
2023/05/31 07:10:00;;;;;;;4.97;2.20;;;;;;;19.89;45.49;98388.50;5070955;28;20234;-81
2023/05/31 07:12:27;;;;;;;6.27;2.53;;;;;;;19.76;46.46;98393.41;5072044;28;20288;-78
2023/05/31 07:14:53;;;;;;;3.57;1.93;;;;;;;19.60;46.10;98400.47;5071317;28;20227;-78
2023/05/31 07:17:20;;;;;;;3.53;2.10;;;;;;;19.52;46.64;98409.28;5071524;28;20215;-78
2023/05/31 07:19:47;;;;;;;3.17;2.10;;;;;;;19.45;47.74;98413.59;5070980;28;20218;-78
2023/05/31 07:22:16;;;;;;;3.43;1.90;;;;;;;19.38;47.39;98407.16;5071811;28;20564;-78
2023/05/31 07:24:42;;;;;;;4.07;2.20;;;;;;;19.44;47.43;98409.22;5071170;28;20775;-78
2023/05/31 07:27:11;;;;;;;3.00;1.97;;;;;;;19.53;47.45;98411.00;5071451;28;20207;-77
2023/05/31 07:29:37;;;;;;;4.20;2.27;;;;;;;19.62;47.60;98404.69;5070619;28;20208;-82
2023/05/31 07:32:04;;;;;;;3.90;2.00;;;;;;;19.73;45.97;98384.81;5071032;28;20203;-82
2023/05/31 07:34:31;;;;;;;4.93;2.20;;;;;;;19.84;47.25;98403.34;5070334;28;20721;-83
2023/05/31 07:36:57;;;;;;;4.43;2.20;;;;;;;19.99;46.00;98393.75;5071623;28;20207;-82
2023/05/31 07:39:24;;;;;;;2.73;2.00;;;;;;;20.08;46.19;98393.66;5070290;28;20208;-82
2023/05/31 07:41:51;;;;;;;3.27;2.30;;;;;;;20.21;45.71;98388.72;5071236;28;20207;-83
2023/05/31 07:44:19;;;;;;;3.23;1.90;;;;;;;20.27;46.52;98390.75;5071198;28;20207;-82
2023/05/31 07:46:46;;;;;;;3.23;1.90;;;;;;;20.29;45.16;98378.00;5071036;28;20230;-82
2023/05/31 07:49:12;;;;;;;4.07;2.00;;;;;;;20.29;45.70;98383.38;5070358;28;20214;-82
2023/05/31 07:51:39;;;;;;;4.87;2.10;;;;;;;20.30;44.89;98362.75;5071200;28;20586;-81
2023/05/31 07:54:07;;;;;;;6.10;2.40;;;;;;;20.19;45.67;98373.75;5071014;28;20238;-82
2023/05/31 07:56:33;;;;;;;4.90;2.33;;;;;;;20.21;44.69;98364.56;5071072;28;20207;-82
2023/05/31 07:59:00;;;;;;;4.00;2.47;;;;;;;20.31;44.86;98364.44;5071228;28;20207;-82
2023/05/31 08:01:28;;;;;;;3.83;2.13;;;;;;;20.36;45.16;98368.28;5070394;28;20215;-83
2023/05/31 08:03:55;;;;;;;6.83;2.70;;;;;;;20.54;44.73;98366.34;5071027;28;20208;-82
2023/05/31 08:06:22;;;;;;;4.03;2.07;;;;;;;20.62;46.50;98387.03;5070982;28;20242;-82
2023/05/31 08:08:48;;;;;;;4.27;2.30;;;;;;;20.65;44.38;98358.00;5070916;28;20211;-82
2023/05/31 08:11:15;;;;;;;10.13;2.50;;;;;;;20.73;43.67;98346.47;5070236;28;20207;-82
2023/05/31 08:13:41;;;;;;;4.47;2.00;;;;;;;20.76;44.91;98360.41;5070881;28;20246;-82
2023/05/31 08:16:08;;;;;;;4.37;2.33;;;;;;;20.82;44.58;98354.38;5070968;28;20246;-82
2023/05/31 08:18:36;;;;;;;3.80;2.20;;;;;;;20.95;44.73;98360.13;5071202;28;20206;-82
2023/05/31 08:21:02;;;;;;;4.73;2.07;;;;;;;21.08;44.07;98360.50;5070361;28;20575;-82
2023/05/31 08:23:29;;;;;;;4.20;2.00;;;;;;;21.08;45.23;98371.25;5070831;28;20203;-82
2023/05/31 08:25:56;;;;;;;3.57;2.10;;;;;;;21.19;44.02;98365.56;5070910;28;20877;-82
2023/05/31 08:28:23;;;;;;;3.03;2.30;;;;;;;21.24;43.91;98357.84;5070688;28;20299;-83
2023/05/31 08:30:49;;;;;;;3.50;2.00;;;;;;;21.32;44.82;98356.97;5070047;28;20211;-83
2023/05/31 08:33:16;;;;;;;5.63;1.93;;;;;;;21.47;45.85;98387.59;5070628;28;20708;-82
2023/05/31 08:35:44;;;;;;;3.30;2.10;;;;;;;21.51;44.88;98362.03;5070418;28;20752;-82
2023/05/31 08:38:10;;;;;;;3.40;1.80;;;;;;;21.58;45.55;98374.63;5070698;28;20634;-82
2023/05/31 08:40:37;;;;;;;4.00;2.10;;;;;;;21.74;43.48;98347.75;5069860;28;20203;-82
2023/05/31 08:43:09;;;;;;;3.47;2.00;;;;;;;21.80;45.08;98370.44;5070778;28;20264;-82
2023/05/31 08:45:36;;;;;;;3.63;2.17;;;;;;;21.83;44.42;98365.56;5072753;28;20720;-82
2023/05/31 08:48:10;;;;;;;6.33;2.33;;;;;;;21.87;44.34;98364.22;5074592;28;20215;-82
2023/05/31 08:50:37;;;;;;;4.53;2.43;;;;;;;21.93;43.95;98342.00;5073809;28;20631;-82
2023/05/31 08:53:07;;;;;;;5.30;2.50;;;;;;;22.00;43.62;98343.00;5074552;28;20212;-82
2023/05/31 08:55:34;;;;;;;4.87;1.80;;;;;;;22.04;43.97;98338.94;5074539;28;20232;-82
2023/05/31 08:58:02;;;;;;;7.17;2.10;;;;;;;22.05;43.85;98340.63;5074664;28;20207;-82
2023/05/31 09:00:29;;;;;;;4.33;2.40;;;;;;;22.18;42.13;98330.16;5073529;28;20677;-82
2023/05/31 09:02:59;;;;;;;3.90;2.17;;;;;;;22.18;42.79;98335.53;5074652;28;20207;-82
2023/05/31 09:05:25;;;;;;;3.97;2.07;;;;;;;22.15;44.68;98354.75;5074330;28;20235;-82
2023/05/31 09:07:52;;;;;;;4.07;2.30;;;;;;;22.23;43.46;98341.25;5074238;28;20215;-79
2023/05/31 09:10:20;;;;;;;5.47;2.53;;;;;;;22.34;43.40;98337.31;5073651;28;20220;-80
2023/05/31 09:12:46;;;;;;;6.00;2.20;;;;;;;22.35;41.80;98317.44;5074263;28;20207;-79
2023/05/31 09:15:15;;;;;;;3.67;1.90;;;;;;;22.40;43.25;98339.31;5074381;28;20242;-79
2023/05/31 09:17:43;;;;;;;6.13;2.30;;;;;;;22.50;43.58;98348.06;5074237;28;20264;-79
2023/05/31 09:20:11;;;;;;;5.30;2.13;;;;;;;22.57;42.83;98330.19;5073332;28;20223;-80
2023/05/31 09:22:38;;;;;;;3.27;2.30;;;;;;;22.68;43.63;98344.09;5073968;28;20239;-80
2023/05/31 09:25:06;;;;;;;4.90;2.63;;;;;;;22.82;41.69;98318.25;5073844;28;20231;-80
2023/05/31 09:27:37;;;;;;;4.93;2.23;;;;;;;22.82;41.63;98319.09;5074259;28;20259;-79
2023/05/31 09:30:09;;;;;;;5.30;2.23;;;;;;;22.88;41.70;98326.47;5073523;28;20204;-80
2023/05/31 09:32:37;;;;;;;3.80;2.17;;;;;;;22.92;43.16;98352.03;5074101;28;20203;-80
2023/05/31 09:35:12;;;;;;;5.13;2.13;;;;;;;22.99;41.77;98326.06;5088616;22;20238;-76
2023/05/31 09:37:44;;;;;;;6.50;2.17;;;;;;;23.11;42.62;98342.69;5073816;28;20210;-76
2023/05/31 09:40:13;;;;;;;2.67;2.10;;;;;;;23.10;41.76;98322.94;5072995;28;20203;-76
2023/05/31 09:42:47;;;;;;;4.00;2.40;;;;;;;23.06;42.73;98335.13;5073710;28;20238;-76
2023/05/31 09:45:14;;;;;;;5.80;2.60;;;;;;;23.14;41.19;98313.50;5073455;28;20226;-77
2023/05/31 09:47:40;;;;;;;3.03;2.07;;;;;;;23.27;40.30;98302.97;5073512;28;20678;-76
2023/05/31 09:50:09;;;;;;;4.30;2.30;;;;;;;23.25;39.85;98288.84;5072941;28;20212;-76
2023/05/31 09:52:38;;;;;;;4.93;2.30;;;;;;;23.37;42.16;98332.38;5073540;28;20215;-77
2023/05/31 09:55:09;;;;;;;4.03;2.30;;;;;;;23.42;40.93;98309.22;5073378;28;20228;-77
2023/05/31 09:57:41;;;;;;;2.77;2.00;;;;;;;23.44;41.21;98306.34;5072769;28;20245;-75
2023/05/31 10:00:14;;;;;;;6.03;2.40;;;;;;;23.43;38.29;98275.84;5072639;28;20208;-75
2023/05/31 10:02:43;;;;;;;4.77;2.37;;;;;;;23.37;40.06;98292.78;5073389;28;20230;-75
2023/05/31 10:05:11;;;;;;;5.60;2.00;;;;;;;23.33;42.03;98323.81;5073123;28;20792;-75
2023/05/31 10:07:39;;;;;;;4.67;2.20;;;;;;;23.53;42.96;98346.56;5073072;28;20593;-75
2023/05/31 10:10:07;;;;;;;3.37;2.10;;;;;;;23.62;40.84;98307.72;5072191;28;20230;-75
2023/05/31 10:12:42;;;;;;;3.13;2.10;;;;;;;23.65;40.10;98295.72;5072971;28;20207;-74
2023/05/31 10:15:13;;;;;;;3.77;1.90;;;;;;;23.77;40.64;98307.75;5073198;28;20862;-74
2023/05/31 10:17:46;;;;;;;3.60;2.20;;;;;;;23.84;40.21;98305.97;5073084;28;20214;-76
2023/05/31 10:20:16;;;;;;;3.43;2.40;;;;;;;23.90;41.17;98314.19;5072249;28;20211;-74
2023/05/31 10:22:45;;;;;;;5.37;2.60;;;;;;;23.84;37.74;98252.81;5072916;28;20207;-76
2023/05/31 10:25:23;;;;;;;4.40;1.97;;;;;;;23.77;37.31;98245.66;5072879;28;20238;-75
2023/05/31 10:27:54;;;;;;;6.10;2.07;;;;;;;23.64;36.18;98227.41;5072619;28;20207;-76
2023/05/31 10:30:26;;;;;;;3.30;1.90;;;;;;;23.52;37.01;98233.44;5072057;28;20307;-75
2023/05/31 10:33:00;;;;;;;4.30;1.97;;;;;;;23.49;37.63;98247.28;5072417;28;20306;-75
2023/05/31 10:35:27;;;;;;;4.07;2.30;;;;;;;23.57;39.11;98272.34;5072580;28;20231;-74
2023/05/31 10:37:54;;;;;;;3.63;2.00;;;;;;;23.69;39.15;98272.72;5072504;28;20203;-75
2023/05/31 10:40:28;;;;;;;5.47;2.17;;;;;;;23.85;40.64;98294.16;5071857;28;20222;-77
2023/05/31 10:43:00;;;;;;;4.60;2.00;;;;;;;23.93;39.39;98267.94;5072313;28;20215;-73
2023/05/31 10:45:35;;;;;;;5.13;2.40;;;;;;;24.07;39.71;98282.47;5072208;28;20231;-76
2023/05/31 10:48:08;;;;;;;6.50;2.13;;;;;;;24.12;38.70;98261.97;5072506;28;20562;-77
2023/05/31 10:50:34;;;;;;;4.27;1.80;;;;;;;24.07;39.02;98259.00;5071591;28;20250;-77
2023/05/31 10:53:10;;;;;;;5.50;2.20;;;;;;;24.27;38.95;98265.47;5072294;28;20226;-76
2023/05/31 10:55:42;;;;;;;3.33;2.37;;;;;;;24.27;40.73;98287.09;5072097;28;20231;-76
2023/05/31 10:58:26;;;;;;;3.07;1.97;;;;;;;24.26;37.24;98225.16;5072063;28;20235;-77
2023/05/31 11:00:55;;;;;;;3.60;1.97;;;;;;;24.15;37.88;98239.16;5071535;28;20226;-77
2023/05/31 11:03:23;;;;;;;5.97;2.03;;;;;;;24.14;39.06;98259.09;5072059;28;20199;-76
2023/05/31 11:05:57;;;;;;;3.27;1.90;;;;;;;24.17;39.24;98259.56;5071833;28;20231;-77
2023/05/31 11:08:23;;;;;;;4.87;2.17;;;;;;;24.24;39.08;98265.03;5070810;28;20211;-77
2023/05/31 11:10:50;;;;;;;3.50;2.10;;;;;;;24.29;37.76;98233.72;5071296;28;20214;-77
2023/05/31 11:13:18;;;;;;;3.03;1.77;;;;;;;24.35;39.69;98275.34;5071680;28;20207;-77
2023/05/31 11:15:45;;;;;;;7.10;2.30;;;;;;;24.50;36.32;98217.53;5071780;28;20230;-76
2023/05/31 11:18:17;;;;;;;5.27;2.03;;;;;;;24.49;38.39;98248.31;5071769;28;20306;-74
2023/05/31 11:20:43;;;;;;;4.53;2.00;;;;;;;24.40;36.95;98230.53;5070867;28;20743;-74
2023/05/31 11:23:30;;;;;;;2.40;1.90;;;;;;;24.45;38.32;98243.47;5071782;28;20222;-74
2023/05/31 11:26:18;;;;;;;3.43;2.00;;;;;;;24.41;37.29;98218.72;5071572;28;20231;-74
2023/05/31 11:29:00;;;;;;;4.93;2.30;;;;;;;24.50;37.85;98227.53;5071541;28;20207;-74
2023/05/31 11:31:58;;;;;;;2.67;1.90;;;;;;;24.64;37.25;98229.38;5070608;28;20215;-76
2023/05/31 11:34:27;;;;;;;2.63;2.10;;;;;;;24.59;39.09;98251.59;5071244;28;20592;-76
2023/05/31 11:36:54;;;;;;;3.67;2.40;;;;;;;24.69;34.08;98183.69;5071284;28;20747;-78
2023/05/31 11:39:21;;;;;;;5.50;2.27;;;;;;;24.55;33.02;98155.66;5070497;28;20215;-76